sensor_id;sensor_type;location;lat;lon;timestamp;pressure;altitude;pressure_sealevel;temperature;humidity
7052;BME280;3567;52.444;13.556;2023-02-16T00:00:58;101979.47;;;-1.04;100.00
7052;BME280;3567;52.444;13.556;2023-02-16T00:03:24;101972.41;;;-1.03;100.00
7052;BME280;3567;52.444;13.556;2023-02-16T00:05:50;101969.06;;;-1.06;100.00
7052;BME280;3567;52.444;13.556;2023-02-16T00:08:15;101976.97;;;-1.06;100.00
7052;BME280;3567;52.444;13.556;2023-02-16T00:10:40;101969.16;;;-1.07;100.00
7052;BME280;3567;52.444;13.556;2023-02-16T00:13:24;101982.31;;;-1.07;100.00
7052;BME280;3567;52.444;13.556;2023-02-16T00:16:17;101982.44;;;-1.09;100.00
7052;BME280;3567;52.444;13.556;2023-02-16T00:18:43;101978.16;;;-1.10;100.00
7052;BME280;3567;52.444;13.556;2023-02-16T00:21:09;101979.81;;;-1.09;100.00
7052;BME280;3567;52.444;13.556;2023-02-16T00:23:34;101979.13;;;-1.11;100.00
7052;BME280;3567;52.444;13.556;2023-02-16T00:26:00;101977.47;;;-1.12;100.00
7052;BME280;3567;52.444;13.556;2023-02-16T00:28:25;101981.50;;;-1.08;100.00
7052;BME280;3567;52.444;13.556;2023-02-16T00:30:50;101984.13;;;-1.08;100.00
7052;BME280;3567;52.444;13.556;2023-02-16T00:33:18;101980.53;;;-1.07;100.00
7052;BME280;3567;52.444;13.556;2023-02-16T00:35:44;101978.84;;;-1.08;100.00
7052;BME280;3567;52.444;13.556;2023-02-16T00:38:10;101977.91;;;-1.07;100.00
7052;BME280;3567;52.444;13.556;2023-02-16T00:40:36;101978.75;;;-1.06;100.00
7052;BME280;3567;52.444;13.556;2023-02-16T00:43:01;101978.75;;;-1.06;100.00
7052;BME280;3567;52.444;13.556;2023-02-16T00:45:27;101981.63;;;-1.09;100.00
7052;BME280;3567;52.444;13.556;2023-02-16T00:47:53;101980.78;;;-1.10;100.00
7052;BME280;3567;52.444;13.556;2023-02-16T00:50:23;101975.53;;;-1.10;100.00
7052;BME280;3567;52.444;13.556;2023-02-16T00:52:50;101987.72;;;-1.09;100.00
7052;BME280;3567;52.444;13.556;2023-02-16T00:55:21;101982.81;;;-1.13;100.00
7052;BME280;3567;52.444;13.556;2023-02-16T01:00:28;101974.09;;;-1.14;100.00
7052;BME280;3567;52.444;13.556;2023-02-16T01:02:57;101975.53;;;-1.10;100.00
7052;BME280;3567;52.444;13.556;2023-02-16T01:05:23;101969.31;;;-1.09;100.00
7052;BME280;3567;52.444;13.556;2023-02-16T01:07:49;101969.06;;;-1.06;100.00
7052;BME280;3567;52.444;13.556;2023-02-16T01:10:36;101968.72;;;-1.01;100.00
7052;BME280;3567;52.444;13.556;2023-02-16T01:13:22;101968.56;;;-0.99;100.00
7052;BME280;3567;52.444;13.556;2023-02-16T01:15:47;101975.50;;;-0.98;100.00
7052;BME280;3567;52.444;13.556;2023-02-16T01:18:15;101976.34;;;-0.98;100.00
7052;BME280;3567;52.444;13.556;2023-02-16T01:20:41;101981.00;;;-1.01;100.00
7052;BME280;3567;52.444;13.556;2023-02-16T01:23:06;101971.34;;;-1.01;100.00
7052;BME280;3567;52.444;13.556;2023-02-16T01:25:32;101970.59;;;-1.03;100.00
7052;BME280;3567;52.444;13.556;2023-02-16T01:27:57;101973.09;;;-1.01;100.00
7052;BME280;3567;52.444;13.556;2023-02-16T01:30:24;101966.91;;;-1.00;100.00
7052;BME280;3567;52.444;13.556;2023-02-16T01:32:50;101966.78;;;-0.99;100.00
7052;BME280;3567;52.444;13.556;2023-02-16T01:35:36;101964.28;;;-1.00;100.00
7052;BME280;3567;52.444;13.556;2023-02-16T01:38:02;101970.00;;;-0.95;100.00
7052;BME280;3567;52.444;13.556;2023-02-16T01:43:09;101952.75;;;-0.88;100.00
7052;BME280;3567;52.444;13.556;2023-02-16T01:45:40;101958.00;;;-0.77;100.00
7052;BME280;3567;52.444;13.556;2023-02-16T01:48:21;101951.97;;;-0.68;100.00
7052;BME280;3567;52.444;13.556;2023-02-16T01:51:25;101943.72;;;-0.63;100.00
7052;BME280;3567;52.444;13.556;2023-02-16T01:53:59;101948.84;;;-0.62;100.00
7052;BME280;3567;52.444;13.556;2023-02-16T01:56:38;101952.44;;;-0.63;100.00
7052;BME280;3567;52.444;13.556;2023-02-16T02:01:48;101945.63;;;-0.65;100.00
7052;BME280;3567;52.444;13.556;2023-02-16T02:04:34;101951.72;;;-0.65;100.00
7052;BME280;3567;52.444;13.556;2023-02-16T02:07:54;101948.84;;;-0.62;100.00
7052;BME280;3567;52.444;13.556;2023-02-16T02:10:27;101951.47;;;-0.62;100.00
7052;BME280;3567;52.444;13.556;2023-02-16T02:13:05;101938.47;;;-0.63;100.00
7052;BME280;3567;52.444;13.556;2023-02-16T02:15:33;101934.53;;;-0.69;100.00
7052;BME280;3567;52.444;13.556;2023-02-16T02:17:59;101940.72;;;-0.70;100.00
7052;BME280;3567;52.444;13.556;2023-02-16T02:32:01;101930.00;;;-0.78;100.00
7052;BME280;3567;52.444;13.556;2023-02-16T02:34:45;101926.41;;;-0.77;100.00
7052;BME280;3567;52.444;13.556;2023-02-16T02:45:16;101933.34;;;-0.76;100.00
7052;BME280;3567;52.444;13.556;2023-02-16T02:47:45;101928.59;;;-0.82;100.00
7052;BME280;3567;52.444;13.556;2023-02-16T02:53:01;101922.66;;;-0.95;100.00
7052;BME280;3567;52.444;13.556;2023-02-16T02:55:28;101920.97;;;-0.96;100.00
7052;BME280;3567;52.444;13.556;2023-02-16T02:58:14;101925.53;;;-0.98;100.00
7052;BME280;3567;52.444;13.556;2023-02-16T03:01:00;101930.31;;;-1.03;100.00
7052;BME280;3567;52.444;13.556;2023-02-16T03:03:44;101915.88;;;-1.09;100.00
7052;BME280;3567;52.444;13.556;2023-02-16T03:06:16;101916.13;;;-1.12;100.00
7052;BME280;3567;52.444;13.556;2023-02-16T03:08:45;101913.63;;;-1.14;100.00
7052;BME280;3567;52.444;13.556;2023-02-16T03:11:23;101918.88;;;-1.14;100.00
7052;BME280;3567;52.444;13.556;2023-02-16T03:14:15;101918.88;;;-1.14;100.00
7052;BME280;3567;52.444;13.556;2023-02-16T03:16:48;101925.09;;;-1.15;100.00
7052;BME280;3567;52.444;13.556;2023-02-16T03:19:16;101920.81;;;-1.16;100.00
7052;BME280;3567;52.444;13.556;2023-02-16T03:22:01;101919.13;;;-1.17;100.00
7052;BME280;3567;52.444;13.556;2023-02-16T03:24:46;101920.66;;;-1.14;100.00
7052;BME280;3567;52.444;13.556;2023-02-16T03:27:39;101921.38;;;-1.12;100.00
7052;BME280;3567;52.444;13.556;2023-02-16T03:30:25;101922.25;;;-1.12;100.00
7052;BME280;3567;52.444;13.556;2023-02-16T03:32:51;101934.53;;;-1.12;100.00
7052;BME280;3567;52.444;13.556;2023-02-16T03:35:17;101918.88;;;-1.14;100.00
7052;BME280;3567;52.444;13.556;2023-02-16T03:37:45;101917.81;;;-1.11;100.00
7052;BME280;3567;52.444;13.556;2023-02-16T03:40:13;101914.06;;;-0.97;100.00
7052;BME280;3567;52.444;13.556;2023-02-16T03:42:59;101914.97;;;-0.87;100.00
7052;BME280;3567;52.444;13.556;2023-02-16T03:45:25;101922.50;;;-0.83;100.00
7052;BME280;3567;52.444;13.556;2023-02-16T03:47:52;101918.19;;;-0.84;100.00
7052;BME280;3567;52.444;13.556;2023-02-16T03:50:17;101917.09;;;-0.81;100.00
7052;BME280;3567;52.444;13.556;2023-02-16T03:52:43;101921.03;;;-0.75;100.00
7052;BME280;3567;52.444;13.556;2023-02-16T03:55:08;101910.63;;;-0.77;100.00
7052;BME280;3567;52.444;13.556;2023-02-16T03:57:33;101914.56;;;-0.71;100.00
7052;BME280;3567;52.444;13.556;2023-02-16T03:59:59;101909.50;;;-0.63;100.00
7052;BME280;3567;52.444;13.556;2023-02-16T04:02:26;101909.84;;;-0.57;100.00
7052;BME280;3567;52.444;13.556;2023-02-16T04:04:52;101908.16;;;-0.58;100.00
7052;BME280;3567;52.444;13.556;2023-02-16T04:07:17;101904.94;;;-0.61;100.00
7052;BME280;3567;52.444;13.556;2023-02-16T04:09:42;101913.44;;;-0.58;100.00
7052;BME280;3567;52.444;13.556;2023-02-16T04:12:10;101913.81;;;-0.62;100.00
7052;BME280;3567;52.444;13.556;2023-02-16T04:15:14;101916.31;;;-0.61;100.00
7052;BME280;3567;52.444;13.556;2023-02-16T04:17:40;101909.09;;;-0.59;100.00
7052;BME280;3567;52.444;13.556;2023-02-16T04:20:07;101906.03;;;-0.64;100.00
7052;BME280;3567;52.444;13.556;2023-02-16T04:22:33;101907.63;;;-0.72;100.00
7052;BME280;3567;52.444;13.556;2023-02-16T04:24:58;101908.97;;;-0.78;100.00
7052;BME280;3567;52.444;13.556;2023-02-16T04:27:24;101904.22;;;-0.84;100.00
7052;BME280;3567;52.444;13.556;2023-02-16T04:29:49;101898.97;;;-0.84;100.00
7052;BME280;3567;52.444;13.556;2023-02-16T04:32:14;101906.47;;;-0.80;100.00
7052;BME280;3567;52.444;13.556;2023-02-16T04:34:40;101895.53;;;-0.75;100.00
7052;BME280;3567;52.444;13.556;2023-02-16T04:37:05;101905.13;;;-0.74;100.00
7052;BME280;3567;52.444;13.556;2023-02-16T04:39:31;101910.03;;;-0.81;100.00
7052;BME280;3567;52.444;13.556;2023-02-16T04:41:56;101904.31;;;-0.86;100.00
7052;BME280;3567;52.444;13.556;2023-02-16T04:44:22;101904.44;;;-0.87;100.00
7052;BME280;3567;52.444;13.556;2023-02-16T04:46:47;101911.38;;;-0.86;100.00
7052;BME280;3567;52.444;13.556;2023-02-16T04:49:12;101903.25;;;-0.83;100.00
7052;BME280;3567;52.444;13.556;2023-02-16T04:51:38;101902.16;;;-0.81;100.00
7052;BME280;3567;52.444;13.556;2023-02-16T04:54:05;101906.84;;;-0.84;100.00
7052;BME280;3567;52.444;13.556;2023-02-16T04:56:30;101899.19;;;-0.87;100.00
7052;BME280;3567;52.444;13.556;2023-02-16T04:58:55;101899.19;;;-0.87;100.00
7052;BME280;3567;52.444;13.556;2023-02-16T05:01:23;101888.66;;;-0.87;100.00
7052;BME280;3567;52.444;13.556;2023-02-16T05:03:49;101890.59;;;-0.89;100.00
7052;BME280;3567;52.444;13.556;2023-02-16T05:06:14;101894.56;;;-0.95;100.00
7052;BME280;3567;52.444;13.556;2023-02-16T05:08:40;101889.41;;;-0.96;100.00
7052;BME280;3567;52.444;13.556;2023-02-16T05:11:06;101887.25;;;-0.91;100.00
7052;BME280;3567;52.444;13.556;2023-02-16T05:13:49;101891.44;;;-0.89;100.00
7052;BME280;3567;52.444;13.556;2023-02-16T05:16:34;101902.41;;;-0.84;100.00
7052;BME280;3567;52.444;13.556;2023-02-16T05:18:59;101903.72;;;-0.78;100.00
7052;BME280;3567;52.444;13.556;2023-02-16T05:21:24;101896.72;;;-0.68;100.00
7052;BME280;3567;52.444;13.556;2023-02-16T05:24:00;101903.28;;;-0.62;100.00
7052;BME280;3567;52.444;13.556;2023-02-16T05:26:26;101914.13;;;-0.56;100.00
7052;BME280;3567;52.444;13.556;2023-02-16T05:28:52;101919.38;;;-0.56;100.00
7052;BME280;3567;52.444;13.556;2023-02-16T05:31:17;101926.81;;;-0.61;100.00
7052;BME280;3567;52.444;13.556;2023-02-16T05:33:43;101929.59;;;-0.62;100.00
7052;BME280;3567;52.444;13.556;2023-02-16T05:36:08;101930.16;;;-0.59;100.00
7052;BME280;3567;52.444;13.556;2023-02-16T05:38:33;101924.13;;;-0.49;100.00
7052;BME280;3567;52.444;13.556;2023-02-16T05:40:59;101919.34;;;-0.44;100.00
7052;BME280;3567;52.444;13.556;2023-02-16T05:43:24;101914.66;;;-0.41;100.00
7052;BME280;3567;52.444;13.556;2023-02-16T05:45:50;101918.19;;;-0.31;100.00
7052;BME280;3567;52.444;13.556;2023-02-16T05:48:16;101917.81;;;-0.26;100.00
7052;BME280;3567;52.444;13.556;2023-02-16T05:50:41;101917.66;;;-0.24;100.00
7052;BME280;3567;52.444;13.556;2023-02-16T05:53:07;101906.63;;;-0.18;100.00
7052;BME280;3567;52.444;13.556;2023-02-16T05:55:32;101900.81;;;-0.12;100.00
7052;BME280;3567;52.444;13.556;2023-02-16T05:57:57;101907.66;;;-0.10;100.00
7052;BME280;3567;52.444;13.556;2023-02-16T06:00:23;101910.28;;;-0.10;100.00
7052;BME280;3567;52.444;13.556;2023-02-16T06:02:48;101912.78;;;-0.08;100.00
7052;BME280;3567;52.444;13.556;2023-02-16T06:05:13;101912.53;;;-0.05;100.00
7052;BME280;3567;52.444;13.556;2023-02-16T06:07:39;101920.16;;;-0.02;100.00
7052;BME280;3567;52.444;13.556;2023-02-16T06:10:05;101927.22;;;-0.03;100.00
7052;BME280;3567;52.444;13.556;2023-02-16T06:12:35;101928.88;;;-0.02;100.00
7052;BME280;3567;52.444;13.556;2023-02-16T06:15:04;101924.72;;;-0.04;100.00
7052;BME280;3567;52.444;13.556;2023-02-16T06:17:29;101934.44;;;-0.05;100.00
7052;BME280;3567;52.444;13.556;2023-02-16T06:19:55;101923.63;;;-0.02;100.00
7052;BME280;3567;52.444;13.556;2023-02-16T06:22:20;101933.19;;;-0.01;100.00
7052;BME280;3567;52.444;13.556;2023-02-16T06:24:45;101929.19;;;0.05;100.00
7052;BME280;3567;52.444;13.556;2023-02-16T06:27:11;101923.94;;;0.05;100.00
7052;BME280;3567;52.444;13.556;2023-02-16T06:29:36;101923.69;;;0.08;100.00
7052;BME280;3567;52.444;13.556;2023-02-16T06:32:02;101926.44;;;0.07;100.00
7052;BME280;3567;52.444;13.556;2023-02-16T06:34:27;101934.91;;;0.10;100.00
7052;BME280;3567;52.444;13.556;2023-02-16T06:36:53;101939.47;;;0.08;100.00
7052;BME280;3567;52.444;13.556;2023-02-16T06:39:18;101934.91;;;0.10;100.00
7052;BME280;3567;52.444;13.556;2023-02-16T06:41:43;101937.44;;;0.12;100.00
7052;BME280;3567;52.444;13.556;2023-02-16T06:44:11;101948.41;;;0.17;100.00
7052;BME280;3567;52.444;13.556;2023-02-16T06:46:37;101935.94;;;0.19;100.00
7052;BME280;3567;52.444;13.556;2023-02-16T06:49:03;101939.25;;;0.21;100.00
7052;BME280;3567;52.444;13.556;2023-02-16T06:51:28;101940.66;;;0.25;100.00
7052;BME280;3567;52.444;13.556;2023-02-16T06:53:54;101937.78;;;0.28;100.00
7052;BME280;3567;52.444;13.556;2023-02-16T06:56:19;101943.50;;;0.33;100.00
7052;BME280;3567;52.444;13.556;2023-02-16T06:58:45;101939.59;;;0.37;100.00
7052;BME280;3567;52.444;13.556;2023-02-16T07:01:10;101947.13;;;0.42;100.00
7052;BME280;3567;52.444;13.556;2023-02-16T07:03:36;101940.63;;;0.46;100.00
7052;BME280;3567;52.444;13.556;2023-02-16T07:06:01;101944.38;;;0.53;100.00
7052;BME280;3567;52.444;13.556;2023-02-16T07:08:26;101942.75;;;0.62;100.00
7052;BME280;3567;52.444;13.556;2023-02-16T07:10:52;101935.97;;;0.69;100.00
7052;BME280;3567;52.444;13.556;2023-02-16T07:13:18;101931.97;;;0.74;100.00
7052;BME280;3567;52.444;13.556;2023-02-16T07:15:43;101934.91;;;0.81;100.00
7052;BME280;3567;52.444;13.556;2023-02-16T07:18:09;101943.13;;;0.88;100.00
7052;BME280;3567;52.444;13.556;2023-02-16T07:20:34;101947.84;;;0.94;100.00
7052;BME280;3567;52.444;13.556;2023-02-16T07:23:00;101941.75;;;1.03;100.00
7052;BME280;3567;52.444;13.556;2023-02-16T07:25:25;101941.06;;;1.11;100.00
7052;BME280;3567;52.444;13.556;2023-02-16T07:27:50;101943.16;;;1.17;100.00
7052;BME280;3567;52.444;13.556;2023-02-16T07:30:16;101942.34;;;1.26;100.00
7052;BME280;3567;52.444;13.556;2023-02-16T07:32:42;101940.78;;;1.33;100.00
7052;BME280;3567;52.444;13.556;2023-02-16T07:35:08;101939.97;;;1.42;100.00
7052;BME280;3567;52.444;13.556;2023-02-16T07:37:34;101940.13;;;1.50;100.00
7052;BME280;3567;52.444;13.556;2023-02-16T07:40:00;101933.31;;;1.57;100.00
7052;BME280;3567;52.444;13.556;2023-02-16T07:42:31;101933.72;;;1.63;100.00
7052;BME280;3567;52.444;13.556;2023-02-16T07:44:57;101931.47;;;1.68;100.00
7052;BME280;3567;52.444;13.556;2023-02-16T07:47:23;101939.13;;;1.71;100.00
7052;BME280;3567;52.444;13.556;2023-02-16T07:49:48;101941.47;;;1.74;100.00
7052;BME280;3567;52.444;13.556;2023-02-16T07:52:13;101932.31;;;1.78;100.00
7052;BME280;3567;52.444;13.556;2023-02-16T07:54:39;101934.53;;;1.82;100.00
7052;BME280;3567;52.444;13.556;2023-02-16T07:57:04;101933.13;;;1.88;100.00
7052;BME280;3567;52.444;13.556;2023-02-16T07:59:30;101938.66;;;1.95;100.00
7052;BME280;3567;52.444;13.556;2023-02-16T08:01:55;101929.06;;;2.03;100.00
7052;BME280;3567;52.444;13.556;2023-02-16T08:04:21;101926.66;;;2.10;100.00
7052;BME280;3567;52.444;13.556;2023-02-16T08:06:46;101933.59;;;2.21;100.00
7052;BME280;3567;52.444;13.556;2023-02-16T08:09:13;101943.31;;;2.30;100.00
7052;BME280;3567;52.444;13.556;2023-02-16T08:11:39;101943.13;;;2.41;100.00
7052;BME280;3567;52.444;13.556;2023-02-16T08:14:04;101941.28;;;2.51;100.00
7052;BME280;3567;52.444;13.556;2023-02-16T08:16:30;101939.09;;;2.65;100.00
7052;BME280;3567;52.444;13.556;2023-02-16T08:18:57;101939.88;;;2.75;100.00
7052;BME280;3567;52.444;13.556;2023-02-16T08:21:26;101944.97;;;2.86;100.00
7052;BME280;3567;52.444;13.556;2023-02-16T08:23:57;101946.28;;;3.00;100.00
7052;BME280;3567;52.444;13.556;2023-02-16T08:26:25;101945.75;;;3.14;100.00
7052;BME280;3567;52.444;13.556;2023-02-16T08:28:51;101945.78;;;3.32;100.00
7052;BME280;3567;52.444;13.556;2023-02-16T08:31:19;101947.31;;;3.52;100.00
7052;BME280;3567;52.444;13.556;2023-02-16T08:33:47;101957.22;;;3.68;100.00
7052;BME280;3567;52.444;13.556;2023-02-16T08:38:48;101951.41;;;3.90;100.00
7052;BME280;3567;52.444;13.556;2023-02-16T08:41:18;101962.22;;;3.97;100.00
7052;BME280;3567;52.444;13.556;2023-02-16T08:43:44;101945.06;;;4.09;100.00
7052;BME280;3567;52.444;13.556;2023-02-16T08:46:10;101955.19;;;4.14;100.00
7052;BME280;3567;52.444;13.556;2023-02-16T08:48:35;101951.44;;;4.25;100.00
7052;BME280;3567;52.444;13.556;2023-02-16T08:51:01;101945.56;;;4.39;99.04
7052;BME280;3567;52.444;13.556;2023-02-16T08:53:27;101951.78;;;4.56;99.12
7052;BME280;3567;52.444;13.556;2023-02-16T08:55:58;101943.56;;;4.75;98.57
7052;BME280;3567;52.444;13.556;2023-02-16T08:58:24;101943.44;;;4.93;98.14
7052;BME280;3567;52.444;13.556;2023-02-16T09:00:51;101940.69;;;5.19;97.25
7052;BME280;3567;52.444;13.556;2023-02-16T09:03:17;101931.91;;;5.43;96.69
7052;BME280;3567;52.444;13.556;2023-02-16T09:05:44;101922.44;;;5.57;96.03
7052;BME280;3567;52.444;13.556;2023-02-16T09:08:09;101932.22;;;5.64;95.05
7052;BME280;3567;52.444;13.556;2023-02-16T09:10:35;101930.91;;;5.76;93.94
7052;BME280;3567;52.444;13.556;2023-02-16T09:13:01;101939.56;;;5.95;93.27
7052;BME280;3567;52.444;13.556;2023-02-16T09:15:26;101932.59;;;6.02;91.27
7052;BME280;3567;52.444;13.556;2023-02-16T09:17:52;101931.34;;;6.21;91.33
7052;BME280;3567;52.444;13.556;2023-02-16T09:20:18;101931.97;;;6.39;90.62
7052;BME280;3567;52.444;13.556;2023-02-16T09:22:45;101932.06;;;6.62;90.06
7052;BME280;3567;52.444;13.556;2023-02-16T09:25:14;101927.72;;;6.92;89.21
7052;BME280;3567;52.444;13.556;2023-02-16T09:27:40;101926.66;;;7.32;89.29
7052;BME280;3567;52.444;13.556;2023-02-16T09:30:06;101928.16;;;7.73;87.80
7052;BME280;3567;52.444;13.556;2023-02-16T09:32:31;101935.47;;;8.08;86.04
7052;BME280;3567;52.444;13.556;2023-02-16T09:34:57;101930.66;;;8.42;85.50
7052;BME280;3567;52.444;13.556;2023-02-16T09:37:23;101930.94;;;8.83;84.57
7052;BME280;3567;52.444;13.556;2023-02-16T09:39:48;101928.56;;;9.09;82.09
7052;BME280;3567;52.444;13.556;2023-02-16T09:45:06;101918.66;;;9.46;78.92
7052;BME280;3567;52.444;13.556;2023-02-16T09:47:40;101915.31;;;9.65;78.29
7052;BME280;3567;52.444;13.556;2023-02-16T09:50:27;101923.09;;;9.88;76.24
7052;BME280;3567;52.444;13.556;2023-02-16T09:52:59;101916.13;;;10.22;77.26
7052;BME280;3567;52.444;13.556;2023-02-16T09:58:21;101921.13;;;10.73;73.71
7052;BME280;3567;52.444;13.556;2023-02-16T10:00:54;101921.63;;;10.96;73.48
7052;BME280;3567;52.444;13.556;2023-02-16T10:09:19;101898.19;;;11.58;70.10
7052;BME280;3567;52.444;13.556;2023-02-16T10:11:56;101905.22;;;11.86;69.31
7052;BME280;3567;52.444;13.556;2023-02-16T10:17:05;101901.03;;;12.23;66.86
7052;BME280;3567;52.444;13.556;2023-02-16T10:19:39;101901.00;;;12.36;66.38
7052;BME280;3567;52.444;13.556;2023-02-16T10:22:08;101894.78;;;12.42;65.99
7052;BME280;3567;52.444;13.556;2023-02-16T10:27:43;101901.41;;;12.78;64.52
7052;BME280;3567;52.444;13.556;2023-02-16T10:30:21;101895.41;;;12.82;62.89
7052;BME280;3567;52.444;13.556;2023-02-16T10:32:55;101893.53;;;12.90;61.67
7052;BME280;3567;52.444;13.556;2023-02-16T10:35:44;101906.91;;;12.96;61.96
7052;BME280;3567;52.444;13.556;2023-02-16T10:41:06;101896.97;;;12.97;61.49
7052;BME280;3567;52.444;13.556;2023-02-16T10:46:15;101897.47;;;12.42;61.49
7052;BME280;3567;52.444;13.556;2023-02-16T10:48:42;101893.94;;;12.35;62.30
7052;BME280;3567;52.444;13.556;2023-02-16T10:51:11;101889.03;;;12.25;61.90
7052;BME280;3567;52.444;13.556;2023-02-16T10:53:45;101887.44;;;11.98;61.64
7052;BME280;3567;52.444;13.556;2023-02-16T10:58:48;101885.41;;;11.67;62.72
7052;BME280;3567;52.444;13.556;2023-02-16T11:01:18;101876.09;;;11.76;62.64
7052;BME280;3567;52.444;13.556;2023-02-16T11:03:47;101873.78;;;12.13;63.08
7052;BME280;3567;52.444;13.556;2023-02-16T11:06:21;101873.00;;;12.50;62.02
7052;BME280;3567;52.444;13.556;2023-02-16T11:08:49;101870.31;;;12.50;61.29
7052;BME280;3567;52.444;13.556;2023-02-16T11:11:16;101862.06;;;12.45;61.20
7052;BME280;3567;52.444;13.556;2023-02-16T11:13:46;101860.41;;;12.51;60.85
7052;BME280;3567;52.444;13.556;2023-02-16T11:16:18;101855.53;;;12.28;60.80
7052;BME280;3567;52.444;13.556;2023-02-16T11:18:48;101859.31;;;12.07;61.63
7052;BME280;3567;52.444;13.556;2023-02-16T11:21:20;101865.09;;;12.17;61.65
7052;BME280;3567;52.444;13.556;2023-02-16T11:23:57;101853.09;;;12.13;60.37
7052;BME280;3567;52.444;13.556;2023-02-16T11:26:25;101854.78;;;12.07;61.62
7052;BME280;3567;52.444;13.556;2023-02-16T11:28:51;101851.03;;;12.22;62.00
7052;BME280;3567;52.444;13.556;2023-02-16T11:31:30;101858.13;;;12.54;61.66
7052;BME280;3567;52.444;13.556;2023-02-16T11:36:34;101844.53;;;12.43;58.56
7052;BME280;3567;52.444;13.556;2023-02-16T11:39:12;101843.84;;;12.02;59.56
7052;BME280;3567;52.444;13.556;2023-02-16T11:41:52;101849.47;;;11.74;61.74
7052;BME280;3567;52.444;13.556;2023-02-16T11:44:42;101847.78;;;11.80;61.73
7052;BME280;3567;52.444;13.556;2023-02-16T11:47:32;101835.16;;;12.07;61.48
7052;BME280;3567;52.444;13.556;2023-02-16T11:52:44;101833.34;;;12.52;60.54
7052;BME280;3567;52.444;13.556;2023-02-16T11:57:47;101830.09;;;12.75;60.29
7052;BME280;3567;52.444;13.556;2023-02-16T12:00:16;101823.78;;;12.56;59.64
7052;BME280;3567;52.444;13.556;2023-02-16T12:02:56;101823.69;;;12.38;59.86
7052;BME280;3567;52.444;13.556;2023-02-16T12:05:31;101825.28;;;12.46;59.57
7052;BME280;3567;52.444;13.556;2023-02-16T12:11:17;101813.03;;;12.88;59.17
7052;BME280;3567;52.444;13.556;2023-02-16T12:19:52;101800.56;;;13.50;57.16
7052;BME280;3567;52.444;13.556;2023-02-16T12:22:45;101791.31;;;13.65;56.90
7052;BME280;3567;52.444;13.556;2023-02-16T12:39:22;101770.81;;;13.82;53.26
7052;BME280;3567;52.444;13.556;2023-02-16T12:44:23;101770.97;;;13.69;54.23
7052;BME280;3567;52.444;13.556;2023-02-16T12:47:00;101763.03;;;13.55;54.53
7052;BME280;3567;52.444;13.556;2023-02-16T12:49:35;101771.34;;;13.72;55.06
7052;BME280;3567;52.444;13.556;2023-02-16T12:54:53;101776.34;;;14.05;54.06
7052;BME280;3567;52.444;13.556;2023-02-16T12:57:20;101768.41;;;14.10;53.68
7052;BME280;3567;52.444;13.556;2023-02-16T12:59:50;101767.00;;;14.08;53.37
7052;BME280;3567;52.444;13.556;2023-02-16T13:05:05;101766.78;;;13.91;53.40
7052;BME280;3567;52.444;13.556;2023-02-16T13:07:41;101766.94;;;13.59;54.10
7052;BME280;3567;52.444;13.556;2023-02-16T13:13:16;101772.88;;;12.68;56.33
7052;BME280;3567;52.444;13.556;2023-02-16T13:20:47;101776.63;;;12.22;58.79
7052;BME280;3567;52.444;13.556;2023-02-16T13:31:19;101757.09;;;12.40;59.16
7052;BME280;3567;52.444;13.556;2023-02-16T13:36:33;101743.47;;;12.35;57.81
7052;BME280;3567;52.444;13.556;2023-02-16T13:44:47;101746.09;;;12.48;57.79
7052;BME280;3567;52.444;13.556;2023-02-16T13:47:24;101751.00;;;12.58;57.79
7052;BME280;3567;52.444;13.556;2023-02-16T13:49:56;101743.78;;;12.58;58.44
7052;BME280;3567;52.444;13.556;2023-02-16T13:54:59;101737.81;;;12.81;58.30
7052;BME280;3567;52.444;13.556;2023-02-16T14:00:31;101742.75;;;12.84;57.14
7052;BME280;3567;52.444;13.556;2023-02-16T14:05:54;101753.50;;;12.84;57.58
7052;BME280;3567;52.444;13.556;2023-02-16T14:08:27;101760.47;;;12.92;57.86
7052;BME280;3567;52.444;13.556;2023-02-16T14:18:46;101743.84;;;12.77;57.98
7052;BME280;3567;52.444;13.556;2023-02-16T14:26:29;101741.25;;;12.32;59.14
7052;BME280;3567;52.444;13.556;2023-02-16T14:31:21;101754.94;;;12.17;60.73
7052;BME280;3567;52.444;13.556;2023-02-16T14:34:10;101744.25;;;12.11;60.90
7052;BME280;3567;52.444;13.556;2023-02-16T14:39:46;101756.88;;;12.03;60.94
7052;BME280;3567;52.444;13.556;2023-02-16T14:42:20;101748.44;;;12.00;61.61
7052;BME280;3567;52.444;13.556;2023-02-16T14:45:10;101751.94;;;12.00;61.56
7052;BME280;3567;52.444;13.556;2023-02-16T14:48:13;101746.16;;;11.97;62.10
7052;BME280;3567;52.444;13.556;2023-02-16T14:56:47;101750.78;;;11.83;62.96
7052;BME280;3567;52.444;13.556;2023-02-16T15:01:43;101750.97;;;11.75;63.33
7052;BME280;3567;52.444;13.556;2023-02-16T15:04:11;101749.94;;;11.69;63.79
7052;BME280;3567;52.444;13.556;2023-02-16T15:06:40;101748.94;;;11.64;64.22
7052;BME280;3567;52.444;13.556;2023-02-16T15:11:46;101750.63;;;11.51;65.03
7052;BME280;3567;52.444;13.556;2023-02-16T15:14:38;101742.56;;;11.45;65.12
7052;BME280;3567;52.444;13.556;2023-02-16T15:17:07;101746.91;;;11.39;65.87
7052;BME280;3567;52.444;13.556;2023-02-16T15:19:33;101749.22;;;11.36;65.78
7052;BME280;3567;52.444;13.556;2023-02-16T15:22:19;101755.19;;;11.31;66.24
7052;BME280;3567;52.444;13.556;2023-02-16T15:25:10;101739.72;;;11.26;66.61
7052;BME280;3567;52.444;13.556;2023-02-16T15:27:51;101744.66;;;11.23;66.64
7052;BME280;3567;52.444;13.556;2023-02-16T15:30:22;101739.72;;;11.20;67.58
7052;BME280;3567;52.444;13.556;2023-02-16T15:33:12;101741.19;;;11.16;67.78
7052;BME280;3567;52.444;13.556;2023-02-16T15:35:42;101742.63;;;11.12;68.05
7052;BME280;3567;52.444;13.556;2023-02-16T15:40:37;101748.59;;;11.00;68.61
7052;BME280;3567;52.444;13.556;2023-02-16T15:45:53;101743.25;;;10.87;69.09
7052;BME280;3567;52.444;13.556;2023-02-16T15:48:33;101741.38;;;10.81;69.28
7052;BME280;3567;52.444;13.556;2023-02-16T15:51:13;101742.00;;;10.77;69.69
7052;BME280;3567;52.444;13.556;2023-02-16T15:53:58;101740.56;;;10.74;69.39
7052;BME280;3567;52.444;13.556;2023-02-16T15:56:42;101736.63;;;10.70;70.27
7052;BME280;3567;52.444;13.556;2023-02-16T15:59:36;101728.38;;;10.65;70.09